Terminal Aerodrome Forecast
Issued by NWS

Home | Current Version | Previous Version | Graphics & Text | Print | Product List | Glossary On
Versions: 1 2 3 4 5 6 7 8 9 10 11 12 13 14 15 16
000
FTUS41 KCLE 250539
TAFFDY
TAF
KFDY 250539Z 2506/2606 29006KT P6SM SCT040 BKN060
     FM251500 27010G20KT P6SM BKN035
     FM251800 27010G20KT P6SM BKN050
     FM252300 27006KT P6SM BKN060=

USA.gov is the U.S. government's official web portal to all federal, state and local government web resources and services.